Time;durP1;ratioP1;P1;durP2;ratioP2;P2;SDS_P1;SDS_P2;PMS_P1;PMS_P2;Temp;Humidity;BMP_temperature;BMP_pressure;BME280_temperature;BME280_humidity;BME280_pressure;Samples;Min_cycle;Max_cycle;Signal;HPM_P1;HPM_P2
2021/12/01 00:00:33;;;;;;;4.00;1.20;;;9.10;51.90;;;;;;4955325;28;20240;-69
2021/12/01 00:03:00;;;;;;;6.90;1.27;;;9.10;51.90;;;;;;4955630;28;20180;-72
2021/12/01 00:05:28;;;;;;;2.88;1.35;;;9.10;52.30;;;;;;4955625;28;20683;-72
2021/12/01 00:07:55;;;;;;;2.22;1.20;;;9.10;52.00;;;;;;4955527;28;20667;-66
2021/12/01 00:10:22;;;;;;;4.47;1.60;;;9.20;52.10;;;;;;4955464;28;20257;-62
2021/12/01 00:12:49;;;;;;;5.32;1.52;;;9.20;52.10;;;;;;4955731;29;20181;-59
2021/12/01 00:15:15;;;;;;;4.43;1.40;;;9.10;52.20;;;;;;4955603;28;20216;-60
2021/12/01 00:17:41;;;;;;;3.42;1.45;;;9.10;52.30;;;;;;4955287;28;20570;-58
2021/12/01 00:20:10;;;;;;;3.47;1.13;;;9.20;52.30;;;;;;4955431;28;20224;-58
2021/12/01 00:22:37;;;;;;;5.25;1.40;;;9.20;52.30;;;;;;4955256;28;20238;-65
2021/12/01 00:25:05;;;;;;;11.30;1.63;;;8.90;53.20;;;;;;4955170;28;20181;-70
2021/12/01 00:27:30;;;;;;;2.63;1.38;;;9.00;53.10;;;;;;4955029;28;20647;-66
2021/12/01 00:29:57;;;;;;;3.42;1.55;;;9.10;52.80;;;;;;4955274;28;20265;-60
2021/12/01 00:32:23;;;;;;;3.25;1.75;;;9.00;52.50;;;;;;4955108;28;20204;-68
2021/12/01 00:34:49;;;;;;;4.63;1.50;;;9.00;52.60;;;;;;4955018;28;20576;-68
2021/12/01 00:37:15;;;;;;;2.45;1.20;;;9.10;52.80;;;;;;4955141;28;20181;-69
2021/12/01 00:39:41;;;;;;;2.53;1.35;;;9.10;52.70;;;;;;4954873;28;20660;-60
2021/12/01 00:42:07;;;;;;;6.18;1.98;;;9.00;53.20;;;;;;4955079;28;20707;-66
2021/12/01 00:44:35;;;;;;;6.40;1.50;;;9.10;53.30;;;;;;4954995;28;20189;-62
2021/12/01 00:49:26;;;;;;;5.70;1.63;;;9.00;53.70;;;;;;4954968;28;20247;-66
2021/12/01 00:51:52;;;;;;;4.93;1.60;;;9.00;53.70;;;;;;4954586;28;20193;-63
2021/12/01 00:54:18;;;;;;;4.20;1.38;;;9.00;54.50;;;;;;4955085;28;20196;-66
2021/12/01 00:56:44;;;;;;;3.00;1.52;;;9.10;53.90;;;;;;4954030;28;20194;-59
2021/12/01 00:59:10;;;;;;;4.05;1.45;;;9.10;54.00;;;;;;4954739;28;20703;-57
2021/12/01 01:01:36;;;;;;;3.75;1.50;;;9.10;54.20;;;;;;4954876;28;20216;-59
2021/12/01 01:04:02;;;;;;;4.82;1.35;;;9.10;54.50;;;;;;4954696;28;20183;-57
2021/12/01 01:06:28;;;;;;;3.72;1.58;;;9.00;55.60;;;;;;4954758;28;20297;-57
2021/12/01 01:08:53;;;;;;;2.72;1.27;;;8.90;55.30;;;;;;4940020;28;20296;-57
2021/12/01 01:16:50;;;;;;;4.80;1.38;;;8.80;56.00;;;;;;4959223;29;20238;-61
2021/12/01 01:19:17;;;;;;;7.85;1.45;;;8.90;55.80;;;;;;4958287;28;20279;-57
2021/12/01 01:21:48;;;;;;;1.70;1.23;;;8.80;56.30;;;;;;4958525;28;20227;-63
2021/12/01 01:24:14;;;;;;;5.65;1.33;;;8.90;56.10;;;;;;4958419;28;20212;-58
2021/12/01 01:26:40;;;;;;;2.67;1.27;;;9.00;56.00;;;;;;4958602;28;20220;-57
2021/12/01 01:29:06;;;;;;;2.10;1.30;;;9.00;56.20;;;;;;4958280;28;20208;-57
2021/12/01 01:31:33;;;;;;;3.13;1.63;;;9.00;56.30;;;;;;4958277;28;20177;-57
2021/12/01 01:33:59;;;;;;;2.83;1.58;;;9.00;56.10;;;;;;4958643;28;20240;-57
2021/12/01 01:36:27;;;;;;;3.17;1.30;;;9.00;56.30;;;;;;4958312;28;20181;-58
2021/12/01 01:38:53;;;;;;;5.22;1.40;;;9.00;56.20;;;;;;4958450;28;20212;-59
2021/12/01 01:41:20;;;;;;;3.22;1.70;;;8.90;56.80;;;;;;4953927;28;20233;-59
2021/12/01 01:43:49;;;;;;;4.18;1.40;;;8.80;57.30;;;;;;4957326;28;20588;-59
2021/12/01 01:46:15;;;;;;;3.13;1.20;;;8.50;58.20;;;;;;4958142;28;20536;-58
2021/12/01 01:49:17;;;;;;;2.75;1.30;;;8.50;58.60;;;;;;4957863;28;20747;-58
2021/12/01 01:51:33;;;;;;;2.08;1.50;;;8.40;59.00;;;;;;4957744;28;20212;-59
2021/12/01 01:53:59;;;;;;;3.17;1.70;;;8.50;58.60;;;;;;4958473;28;20204;-59
2021/12/01 01:56:26;;;;;;;4.65;1.50;;;8.60;58.30;;;;;;4959287;28;20188;-59
2021/12/01 01:58:53;;;;;;;2.17;1.17;;;8.80;58.10;;;;;;4958669;28;20201;-58
2021/12/01 02:03:55;;;;;;;3.90;1.45;;;8.40;59.30;;;;;;4958550;28;20179;-59
2021/12/01 02:06:25;;;;;;;5.70;1.50;;;8.40;59.30;;;;;;4958806;28;20640;-58
2021/12/01 02:08:53;;;;;;;5.55;1.40;;;8.50;58.90;;;;;;4958891;28;20572;-58
2021/12/01 02:11:20;;;;;;;2.47;1.40;;;8.60;59.20;;;;;;4960066;28;20663;-58
2021/12/01 02:13:46;;;;;;;5.13;1.70;;;8.70;58.70;;;;;;4960348;28;20263;-59
2021/12/01 02:16:13;;;;;;;4.05;1.40;;;8.70;58.50;;;;;;4958908;28;20263;-62
2021/12/01 02:18:40;;;;;;;3.78;1.35;;;8.70;58.90;;;;;;4958822;28;20661;-60
2021/12/01 02:21:18;;;;;;;9.93;1.88;;;8.60;59.00;;;;;;4953997;28;20585;-59
2021/12/01 02:23:49;;;;;;;5.13;1.77;;;8.70;59.00;;;;;;4949875;28;20606;-58
2021/12/01 02:26:17;;;;;;;5.15;1.48;;;8.80;58.70;;;;;;4957514;28;20640;-58
2021/12/01 02:28:45;;;;;;;6.03;1.55;;;8.70;58.70;;;;;;4957392;28;20236;-58
2021/12/01 02:31:12;;;;;;;4.93;1.38;;;8.80;58.40;;;;;;4957296;28;20653;-58
2021/12/01 02:33:38;;;;;;;3.60;1.30;;;8.80;58.50;;;;;;4957256;28;20561;-61
2021/12/01 02:36:06;;;;;;;5.45;1.20;;;8.80;58.60;;;;;;4957287;28;20185;-59
2021/12/01 02:38:32;;;;;;;4.55;1.40;;;8.80;58.60;;;;;;4957125;28;20196;-58
2021/12/01 02:40:58;;;;;;;4.65;1.40;;;8.80;58.30;;;;;;4957156;28;20227;-58
2021/12/01 02:43:24;;;;;;;4.30;1.48;;;8.80;58.30;;;;;;4957119;28;20196;-58
2021/12/01 02:45:54;;;;;;;7.53;1.35;;;8.90;58.20;;;;;;4957337;28;20185;-72
2021/12/01 02:48:22;;;;;;;2.55;1.40;;;8.90;58.40;;;;;;4956903;28;20706;-58
2021/12/01 02:50:48;;;;;;;3.95;1.42;;;8.90;58.70;;;;;;4955690;28;20180;-59
2021/12/01 02:53:14;;;;;;;3.58;1.48;;;9.00;58.00;;;;;;4957009;28;20632;-58
2021/12/01 02:55:49;;;;;;;3.83;1.58;;;9.00;57.90;;;;;;4956910;28;20216;-58
2021/12/01 02:58:17;;;;;;;5.32;1.40;;;8.90;58.50;;;;;;4956817;28;20212;-58
2021/12/01 03:00:43;;;;;;;3.47;1.27;;;8.70;58.90;;;;;;4956920;28;20239;-58
2021/12/01 03:03:09;;;;;;;4.88;1.40;;;8.70;59.00;;;;;;4956625;28;20652;-58
2021/12/01 03:05:35;;;;;;;3.00;1.40;;;8.70;59.50;;;;;;4956786;28;20694;-58
2021/12/01 03:08:01;;;;;;;4.15;1.50;;;8.60;59.80;;;;;;4956420;28;20197;-58
2021/12/01 03:10:26;;;;;;;6.15;1.65;;;8.30;61.70;;;;;;4956885;28;20569;-58
2021/12/01 03:12:52;;;;;;;6.50;1.00;;;8.30;61.80;;;;;;4956766;28;20180;-58
2021/12/01 03:15:19;;;;;;;5.57;1.40;;;8.10;62.80;;;;;;4955212;28;20550;-58
2021/12/01 03:17:45;;;;;;;5.00;1.42;;;8.10;62.40;;;;;;4956295;28;20217;-60
2021/12/01 03:20:14;;;;;;;3.95;1.30;;;8.30;61.40;;;;;;4956593;28;20328;-58
2021/12/01 03:22:41;;;;;;;4.50;1.10;;;8.50;60.50;;;;;;4954908;28;20228;-59
2021/12/01 03:25:11;;;;;;;4.50;1.60;;;8.60;60.00;;;;;;4956439;28;20184;-58
2021/12/01 03:27:37;;;;;;;4.97;1.33;;;8.70;59.80;;;;;;4956026;28;20267;-61
2021/12/01 03:30:05;;;;;;;3.47;1.23;;;8.70;59.80;;;;;;4956330;28;20601;-60
2021/12/01 03:32:31;;;;;;;7.00;1.60;;;8.80;59.60;;;;;;4955924;28;20184;-58
2021/12/01 03:34:57;;;;;;;3.47;1.33;;;8.90;59.40;;;;;;4955709;28;20189;-58
2021/12/01 03:37:24;;;;;;;5.13;1.48;;;8.90;59.40;;;;;;4956309;28;20195;-61
2021/12/01 03:39:49;;;;;;;7.63;1.15;;;9.00;58.90;;;;;;4955860;28;20215;-60
2021/12/01 03:42:15;;;;;;;3.38;1.60;;;9.10;59.00;;;;;;4956094;28;20180;-58
2021/12/01 03:44:41;;;;;;;3.47;1.40;;;9.00;59.30;;;;;;4955911;28;20281;-58
2021/12/01 03:47:06;;;;;;;6.93;1.65;;;9.00;59.20;;;;;;4955819;28;20701;-59
2021/12/01 03:49:32;;;;;;;4.60;1.35;;;9.10;58.80;;;;;;4955944;28;20216;-65
2021/12/01 03:51:58;;;;;;;2.83;1.10;;;9.20;58.60;;;;;;4956051;28;20185;-59
2021/12/01 03:54:23;;;;;;;6.38;1.73;;;9.20;58.70;;;;;;4957705;28;20184;-69
2021/12/01 03:56:49;;;;;;;3.33;1.20;;;9.20;59.00;;;;;;4958365;28;20533;-66
2021/12/01 03:59:15;;;;;;;3.05;1.10;;;9.20;58.50;;;;;;4958192;28;20204;-66
2021/12/01 04:01:40;;;;;;;3.33;1.27;;;9.30;58.40;;;;;;4955578;28;20223;-67
2021/12/01 04:04:06;;;;;;;5.88;1.23;;;9.30;58.40;;;;;;4955680;28;20203;-68
2021/12/01 04:06:33;;;;;;;10.32;1.52;;;9.30;58.30;;;;;;4955709;28;20239;-62
2021/12/01 04:08:58;;;;;;;5.45;1.20;;;9.30;58.50;;;;;;4955665;28;20243;-59
2021/12/01 04:11:24;;;;;;;4.55;1.27;;;9.30;58.40;;;;;;4955306;28;20208;-71
2021/12/01 04:13:51;;;;;;;7.13;1.70;;;9.30;58.40;;;;;;4955621;28;20189;-68
2021/12/01 04:16:17;;;;;;;6.00;1.60;;;9.30;58.50;;;;;;4955228;28;20192;-64
2021/12/01 04:18:43;;;;;;;4.22;1.48;;;9.20;58.80;;;;;;4955333;28;20216;-67
2021/12/01 04:21:09;;;;;;;3.80;1.50;;;9.20;58.70;;;;;;4955006;28;20365;-71
2021/12/01 04:23:34;;;;;;;5.03;1.58;;;9.30;58.60;;;;;;4955275;28;20237;-66
2021/12/01 04:26:01;;;;;;;4.90;1.65;;;9.30;58.60;;;;;;4955315;28;20181;-69
2021/12/01 04:28:28;;;;;;;2.03;1.00;;;9.30;58.70;;;;;;4955182;28;20197;-72
2021/12/01 04:30:54;;;;;;;2.83;1.17;;;9.30;58.70;;;;;;4954983;28;20185;-68
2021/12/01 04:33:19;;;;;;;3.92;1.10;;;9.30;58.80;;;;;;4955477;28;20257;-71
2021/12/01 04:35:47;;;;;;;5.80;1.40;;;9.30;58.60;;;;;;4954946;28;20185;-65
2021/12/01 04:38:13;;;;;;;4.53;1.00;;;9.30;58.40;;;;;;4955005;28;20619;-72
2021/12/01 04:40:39;;;;;;;3.28;1.40;;;9.40;58.30;;;;;;4955006;28;20205;-66
2021/12/01 04:43:05;;;;;;;3.42;1.30;;;9.40;58.20;;;;;;4955083;28;20599;-61
2021/12/01 04:45:32;;;;;;;2.60;1.20;;;9.40;58.20;;;;;;4954943;28;20774;-58
2021/12/01 04:47:57;;;;;;;2.67;1.45;;;9.40;58.40;;;;;;4954060;28;20251;-60
2021/12/01 04:50:26;;;;;;;3.28;1.40;;;9.40;58.40;;;;;;4954950;28;20703;-61
2021/12/01 04:52:55;;;;;;;2.63;1.00;;;9.40;58.40;;;;;;4954922;28;20180;-58
2021/12/01 04:55:21;;;;;;;4.55;1.40;;;9.30;58.80;;;;;;4953578;28;20196;-63
2021/12/01 04:57:48;;;;;;;5.45;1.35;;;9.30;58.60;;;;;;4954784;28;20177;-61
2021/12/01 05:00:20;;;;;;;2.70;1.08;;;9.30;59.00;;;;;;4954593;28;20216;-61
2021/12/01 05:02:46;;;;;;;5.75;1.50;;;9.20;59.20;;;;;;4955022;28;20180;-59
2021/12/01 05:05:12;;;;;;;4.45;1.25;;;9.20;59.50;;;;;;4954600;28;20655;-63
2021/12/01 05:07:38;;;;;;;4.28;1.00;;;9.20;59.20;;;;;;4955025;28;20177;-60
2021/12/01 05:10:05;;;;;;;7.20;1.50;;;9.30;59.10;;;;;;4954968;28;20272;-56
2021/12/01 05:12:31;;;;;;;4.43;1.17;;;9.30;59.10;;;;;;4954703;28;20251;-58
2021/12/01 05:14:56;;;;;;;4.78;1.23;;;9.30;58.90;;;;;;4954822;28;20347;-60
2021/12/01 05:17:22;;;;;;;4.90;1.10;;;9.40;58.80;;;;;;4954413;28;20196;-58
2021/12/01 05:19:48;;;;;;;1.10;1.00;;;9.40;59.00;;;;;;4954587;28;20221;-58
2021/12/01 05:22:14;;;;;;;4.47;1.20;;;9.30;59.20;;;;;;4954672;28;20243;-59
2021/12/01 05:24:40;;;;;;;3.80;1.20;;;9.20;59.20;;;;;;4954423;28;20195;-58
2021/12/01 05:27:07;;;;;;;3.92;1.40;;;9.30;59.20;;;;;;4954592;28;20177;-57
2021/12/01 05:29:32;;;;;;;1.58;1.10;;;9.30;59.00;;;;;;4953970;28;20616;-63
2021/12/01 05:32:00;;;;;;;3.05;1.52;;;9.30;59.00;;;;;;4954138;28;20193;-58
2021/12/01 05:34:26;;;;;;;4.47;1.70;;;9.30;58.90;;;;;;4954246;28;20773;-64
2021/12/01 05:36:53;;;;;;;3.30;1.40;;;9.40;58.80;;;;;;4953957;28;20189;-66
2021/12/01 05:39:19;;;;;;;5.15;1.40;;;9.30;59.20;;;;;;4954299;28;20201;-69
2021/12/01 05:41:45;;;;;;;7.63;1.67;;;9.20;59.30;;;;;;4953975;29;20554;-68
2021/12/01 05:44:11;;;;;;;5.53;2.10;;;9.20;59.10;;;;;;4954472;28;20189;-67
2021/12/01 05:46:37;;;;;;;6.43;1.70;;;9.20;59.20;;;;;;4954549;28;20597;-66
2021/12/01 05:49:04;;;;;;;5.35;1.42;;;9.30;59.00;;;;;;4954255;28;20204;-59
2021/12/01 05:51:30;;;;;;;13.18;2.05;;;9.20;59.40;;;;;;4954387;28;20228;-58
2021/12/01 05:53:55;;;;;;;6.15;1.60;;;9.10;60.10;;;;;;4954153;28;20185;-58
2021/12/01 05:56:21;;;;;;;5.22;1.40;;;9.10;59.70;;;;;;4954232;28;20185;-59
2021/12/01 05:58:47;;;;;;;2.20;1.42;;;9.10;59.60;;;;;;4941505;28;20213;-58
2021/12/01 06:01:13;;;;;;;4.45;1.40;;;9.20;59.70;;;;;;4957673;28;20577;-58
2021/12/01 06:03:40;;;;;;;3.55;1.30;;;9.20;59.40;;;;;;4957831;28;20192;-58
2021/12/01 06:06:06;;;;;;;6.35;1.60;;;9.30;59.10;;;;;;4956452;28;20191;-57
2021/12/01 06:08:32;;;;;;;7.55;1.50;;;9.30;58.80;;;;;;4957463;28;20205;-57
2021/12/01 06:10:58;;;;;;;6.53;1.40;;;9.40;58.60;;;;;;4957691;28;20177;-60
2021/12/01 06:13:24;;;;;;;4.97;1.60;;;9.40;58.50;;;;;;4957576;28;20668;-60
2021/12/01 06:15:51;;;;;;;5.20;1.88;;;9.30;58.50;;;;;;4957798;28;20185;-57
2021/12/01 06:18:18;;;;;;;3.33;1.33;;;9.30;58.70;;;;;;4957234;28;20197;-64
2021/12/01 06:20:44;;;;;;;4.80;1.30;;;9.30;58.50;;;;;;4957446;28;20209;-67
2021/12/01 06:23:10;;;;;;;4.13;1.30;;;9.30;58.50;;;;;;4957234;28;20669;-69
2021/12/01 06:25:36;;;;;;;2.97;1.02;;;9.30;58.40;;;;;;4957311;28;20189;-64
2021/12/01 06:28:02;;;;;;;3.47;1.42;;;9.30;58.50;;;;;;4957351;28;20208;-69
2021/12/01 06:30:35;;;;;;;4.07;1.52;;;9.40;58.30;;;;;;4957206;28;20423;-58
2021/12/01 06:33:01;;;;;;;2.38;1.45;;;9.30;58.30;;;;;;4957311;28;20181;-64
2021/12/01 06:35:26;;;;;;;7.80;1.80;;;9.10;58.60;;;;;;4957194;28;20177;-66
2021/12/01 06:37:56;;;;;;;4.93;2.05;;;9.30;58.40;;;;;;4957029;28;20177;-69
2021/12/01 06:40:25;;;;;;;6.30;3.10;;;9.30;58.40;;;;;;4956949;29;20216;-64
2021/12/01 06:42:52;;;;;;;7.55;3.10;;;9.30;58.20;;;;;;4956977;28;20275;-57
2021/12/01 06:45:18;;;;;;;9.60;4.30;;;9.30;58.20;;;;;;4956898;28;20185;-67
2021/12/01 06:47:44;;;;;;;8.88;3.63;;;9.30;58.20;;;;;;4956788;28;20244;-59
2021/12/01 06:50:13;;;;;;;10.68;2.97;;;9.30;58.00;;;;;;4956581;28;20589;-62
2021/12/01 06:52:39;;;;;;;16.45;3.35;;;9.40;57.90;;;;;;4957048;28;20668;-63
2021/12/01 06:55:07;;;;;;;9.35;2.92;;;9.40;57.40;;;;;;4956443;28;20181;-66
2021/12/01 06:57:33;;;;;;;4.47;1.90;;;9.40;57.70;;;;;;4956897;28;20235;-63
2021/12/01 07:00:00;;;;;;;4.25;1.77;;;9.40;57.30;;;;;;4956496;28;20204;-69
2021/12/01 07:02:26;;;;;;;4.80;2.42;;;9.40;57.50;;;;;;4956347;28;20819;-60
2021/12/01 07:04:53;;;;;;;4.53;2.03;;;10.00;70.70;;;;;;4957075;28;20177;-61
2021/12/01 07:07:18;;;;;;;5.85;2.08;;;10.50;63.50;;;;;;4956315;28;20216;-63
2021/12/01 07:09:49;;;;;;;7.72;2.17;;;10.80;62.50;;;;;;4955801;28;20623;-58
2021/12/01 07:12:15;;;;;;;3.88;1.55;;;10.90;58.10;;;;;;4956286;28;20541;-65
2021/12/01 07:14:41;;;;;;;6.30;1.70;;;11.20;58.60;;;;;;4956648;28;20184;-62
2021/12/01 07:17:07;;;;;;;2.13;1.35;;;11.50;58.20;;;;;;4956476;28;20188;-62
2021/12/01 07:19:32;;;;;;;4.90;1.20;;;11.50;56.50;;;;;;4955935;28;20615;-63
2021/12/01 07:21:58;;;;;;;4.65;1.80;;;11.40;55.60;;;;;;4956309;28;20264;-58
2021/12/01 07:24:25;;;;;;;1.77;1.20;;;11.50;53.90;;;;;;4955373;28;20649;-58
2021/12/01 07:26:52;;;;;;;1.40;1.13;;;11.20;52.80;;;;;;4956208;28;20181;-58
2021/12/01 07:29:18;;;;;;;3.40;1.15;;;11.00;53.50;;;;;;4955542;28;20690;-56
2021/12/01 07:31:44;;;;;;;1.73;1.20;;;10.80;54.00;;;;;;4955947;28;20173;-57
2021/12/01 07:34:10;;;;;;;3.72;1.38;;;10.60;54.20;;;;;;4955359;28;20208;-59
2021/12/01 07:36:36;;;;;;;2.03;1.35;;;10.50;54.50;;;;;;4955327;28;20651;-58
2021/12/01 07:39:03;;;;;;;5.45;1.10;;;10.60;54.70;;;;;;4955388;28;20667;-58
2021/12/01 07:41:28;;;;;;;2.72;1.48;;;10.60;54.70;;;;;;4955387;28;20283;-58
2021/12/01 07:43:54;;;;;;;9.30;1.52;;;10.70;54.60;;;;;;4954063;29;20625;-60
2021/12/01 07:46:20;;;;;;;2.63;1.40;;;10.70;54.40;;;;;;4955296;28;20723;-59
2021/12/01 07:48:46;;;;;;;6.20;1.55;;;10.80;54.00;;;;;;4953902;28;20715;-60
2021/12/01 07:51:12;;;;;;;3.20;1.73;;;10.90;53.90;;;;;;4955388;28;20184;-63
2021/12/01 07:53:38;;;;;;;3.78;1.60;;;10.80;54.00;;;;;;4955699;28;20750;-61
2021/12/01 07:56:05;;;;;;;7.10;1.30;;;10.90;54.40;;;;;;4955493;28;20215;-64
2021/12/01 07:58:31;;;;;;;3.67;1.83;;;10.90;54.10;;;;;;4955425;28;20288;-61
2021/12/01 08:00:57;;;;;;;3.33;1.25;;;10.90;53.90;;;;;;4955635;28;20295;-61
2021/12/01 08:03:22;;;;;;;3.00;1.30;;;10.80;54.30;;;;;;4955125;28;20604;-62
2021/12/01 08:05:48;;;;;;;5.88;1.80;;;10.70;54.50;;;;;;4955533;28;20200;-61
2021/12/01 08:08:14;;;;;;;2.88;1.35;;;10.70;54.40;;;;;;4955089;28;20204;-61
2021/12/01 08:10:40;;;;;;;4.35;2.05;;;10.60;54.40;;;;;;4955565;28;20176;-62
2021/12/01 08:13:05;;;;;;;3.85;1.50;;;10.70;55.10;;;;;;4955383;28;20189;-64
2021/12/01 08:15:31;;;;;;;4.40;1.90;;;10.70;54.70;;;;;;4954903;28;20557;-59
2021/12/01 08:17:59;;;;;;;6.40;1.63;;;10.70;54.40;;;;;;4956387;28;20184;-58
2021/12/01 08:20:25;;;;;;;3.88;1.73;;;10.60;54.80;;;;;;4948409;28;20220;-59
2021/12/01 08:22:51;;;;;;;8.02;1.60;;;10.60;54.80;;;;;;4949210;28;20262;-61
2021/12/01 08:25:17;;;;;;;4.75;2.15;;;10.60;55.00;;;;;;4945407;28;20196;-62
2021/12/01 08:27:43;;;;;;;6.25;1.50;;;10.60;55.70;;;;;;4946309;28;20193;-61
2021/12/01 08:30:09;;;;;;;5.22;1.35;;;10.60;55.10;;;;;;4940808;28;20185;-61
2021/12/01 08:32:35;;;;;;;3.17;1.42;;;10.70;55.30;;;;;;4952418;28;20212;-62
2021/12/01 08:35:02;;;;;;;3.60;1.50;;;10.60;55.10;;;;;;4952696;28;20177;-61
2021/12/01 08:37:27;;;;;;;2.13;1.40;;;10.60;55.40;;;;;;4950707;28;20194;-64
2021/12/01 08:39:53;;;;;;;3.25;1.08;;;10.60;55.50;;;;;;4947704;28;20232;-59
2021/12/01 08:42:21;;;;;;;3.42;1.35;;;10.50;55.70;;;;;;4952280;28;20191;-64
2021/12/01 08:44:49;;;;;;;3.95;1.40;;;10.60;55.80;;;;;;4950018;28;20263;-59
2021/12/01 08:47:18;;;;;;;5.10;1.60;;;10.60;56.00;;;;;;4953860;28;20331;-57
2021/12/01 08:49:44;;;;;;;4.22;1.80;;;10.80;55.80;;;;;;4954481;28;20215;-66
2021/12/01 08:52:10;;;;;;;2.58;1.63;;;10.90;55.70;;;;;;4963549;28;20181;-62
2021/12/01 08:54:37;;;;;;;5.10;1.42;;;11.10;55.40;;;;;;4939064;28;20185;-63
2021/12/01 08:57:03;;;;;;;3.35;1.40;;;11.20;55.10;;;;;;4951223;28;20196;-66
2021/12/01 08:59:29;;;;;;;2.17;1.30;;;11.20;55.40;;;;;;4952812;28;20200;-66
2021/12/01 09:01:55;;;;;;;4.75;1.30;;;11.20;55.60;;;;;;4954009;28;20235;-67
2021/12/01 09:04:21;;;;;;;3.45;1.73;;;11.40;54.90;;;;;;4950115;28;20633;-62
2021/12/01 09:06:47;;;;;;;4.15;1.40;;;11.50;54.80;;;;;;4943831;28;20181;-67
2021/12/01 09:09:18;;;;;;;2.67;1.40;;;11.70;54.50;;;;;;4953699;28;20205;-62
2021/12/01 09:11:48;;;;;;;3.70;1.23;;;11.80;53.90;;;;;;4952832;29;20555;-63
2021/12/01 09:14:14;;;;;;;1.30;1.13;;;11.70;53.80;;;;;;4953885;28;20177;-59
2021/12/01 09:16:44;;;;;;;8.90;1.60;;;11.70;54.20;;;;;;4954340;28;20555;-59
2021/12/01 09:19:10;;;;;;;2.13;1.30;;;11.70;54.20;;;;;;4954258;28;20204;-60
2021/12/01 09:21:36;;;;;;;3.58;1.50;;;11.70;54.50;;;;;;4954322;28;20292;-60
2021/12/01 09:24:02;;;;;;;2.72;1.50;;;11.60;54.80;;;;;;4954895;28;20236;-62
2021/12/01 09:26:28;;;;;;;4.68;1.90;;;11.70;54.90;;;;;;4954376;28;20573;-60
2021/12/01 09:28:54;;;;;;;3.58;1.60;;;11.70;55.10;;;;;;4954142;28;20197;-59
2021/12/01 09:31:20;;;;;;;9.57;1.95;;;11.80;55.20;;;;;;4954308;28;20217;-58
2021/12/01 09:33:46;;;;;;;3.85;1.38;;;11.90;55.50;;;;;;4955470;28;20666;-62
2021/12/01 09:36:13;;;;;;;3.35;1.55;;;11.90;55.70;;;;;;4955398;28;20269;-62
2021/12/01 09:38:39;;;;;;;3.58;1.75;;;12.00;55.40;;;;;;4957506;28;20314;-66
2021/12/01 09:41:04;;;;;;;3.25;1.50;;;12.10;55.10;;;;;;4957897;28;20208;-62
2021/12/01 09:43:32;;;;;;;3.13;1.50;;;12.20;55.50;;;;;;4957213;28;20189;-63
2021/12/01 09:46:00;;;;;;;6.47;1.40;;;12.30;55.30;;;;;;4957531;28;20188;-65
2021/12/01 09:48:27;;;;;;;2.60;1.48;;;12.50;55.30;;;;;;4957397;28;20196;-64
2021/12/01 09:50:53;;;;;;;2.95;1.50;;;12.60;54.90;;;;;;4957496;28;20188;-64
2021/12/01 09:53:19;;;;;;;5.68;1.30;;;12.90;54.50;;;;;;4957389;28;20177;-64
2021/12/01 09:55:45;;;;;;;8.60;1.45;;;12.90;54.30;;;;;;4957068;28;20260;-66
2021/12/01 09:58:17;;;;;;;2.42;1.10;;;12.80;54.40;;;;;;4957300;28;20283;-63
2021/12/01 10:00:48;;;;;;;5.10;1.10;;;12.70;54.60;;;;;;4957169;28;20247;-65
2021/12/01 10:03:14;;;;;;;4.20;1.40;;;12.50;55.00;;;;;;4957048;28;20191;-72
2021/12/01 10:06:17;;;;;;;14.30;1.67;;;12.50;56.00;;;;;;4956551;28;20188;-62
2021/12/01 10:08:53;;;;;;;2.80;1.10;;;12.40;55.90;;;;;;4956303;28;20706;-64
2021/12/01 10:11:23;;;;;;;3.75;1.38;;;12.30;56.20;;;;;;4956373;28;20188;-63
2021/12/01 10:13:57;;;;;;;4.38;1.50;;;12.30;56.40;;;;;;4956257;28;20185;-61
2021/12/01 10:16:25;;;;;;;5.85;2.05;;;12.20;56.40;;;;;;4956366;28;20185;-60
2021/12/01 10:18:54;;;;;;;8.48;2.03;;;12.10;57.30;;;;;;4956855;28;20675;-60
2021/12/01 10:21:29;;;;;;;3.50;1.85;;;12.10;57.50;;;;;;4956798;28;20597;-60
2021/12/01 10:23:57;;;;;;;6.38;1.73;;;12.10;57.50;;;;;;4956906;28;20196;-58
2021/12/01 10:26:26;;;;;;;4.20;2.00;;;12.20;57.50;;;;;;4956886;28;20263;-58
2021/12/01 10:28:56;;;;;;;5.47;1.58;;;12.30;57.90;;;;;;4956751;28;20205;-57
2021/12/01 10:31:38;;;;;;;6.63;1.70;;;12.30;57.90;;;;;;4956674;28;20241;-58
2021/12/01 10:34:21;;;;;;;3.65;1.48;;;12.30;57.10;;;;;;4956750;28;20173;-61
2021/12/01 10:36:50;;;;;;;2.45;1.52;;;12.30;56.90;;;;;;4956406;28;20661;-59
2021/12/01 10:39:17;;;;;;;4.60;1.77;;;12.30;57.50;;;;;;4956288;28;20221;-61
2021/12/01 10:41:43;;;;;;;5.43;1.90;;;12.30;57.50;;;;;;4956442;28;20668;-60
2021/12/01 10:44:10;;;;;;;6.10;1.42;;;12.30;57.60;;;;;;4955584;28;20606;-58
2021/12/01 10:46:55;;;;;;;3.90;1.45;;;12.30;58.10;;;;;;4956676;28;20181;-60
2021/12/01 10:49:40;;;;;;;3.72;1.40;;;12.20;58.60;;;;;;4956705;28;20201;-60
2021/12/01 10:52:09;;;;;;;5.93;1.20;;;12.10;58.80;;;;;;4956522;28;20183;-62
2021/12/01 10:54:35;;;;;;;9.52;3.05;;;12.10;59.00;;;;;;4948766;28;20506;-61
2021/12/01 10:57:22;;;;;;;8.45;3.22;;;12.10;59.20;;;;;;4940419;28;20268;-61
2021/12/01 10:59:50;;;;;;;5.50;2.80;;;12.20;59.40;;;;;;4954294;28;20599;-60
2021/12/01 11:02:17;;;;;;;5.85;2.83;;;12.10;59.40;;;;;;4955126;29;20649;-61
2021/12/01 11:04:43;;;;;;;6.68;2.83;;;12.10;59.50;;;;;;4956209;28;20745;-60
2021/12/01 11:07:28;;;;;;;6.68;1.90;;;12.20;60.00;;;;;;4954204;28;20196;-61
2021/12/01 11:10:28;;;;;;;6.65;1.60;;;12.20;59.70;;;;;;4956115;28;20566;-58
2021/12/01 11:12:59;;;;;;;5.30;1.80;;;12.20;59.70;;;;;;4934658;29;20178;-58
2021/12/01 11:15:38;;;;;;;5.47;1.83;;;12.20;60.00;;;;;;4949998;29;20537;-58
2021/12/01 11:18:05;;;;;;;9.70;1.60;;;12.20;60.20;;;;;;4956604;28;20553;-58
2021/12/01 11:20:34;;;;;;;7.22;1.67;;;12.20;59.80;;;;;;4956484;28;20303;-59
2021/12/01 11:23:11;;;;;;;6.38;1.73;;;12.10;60.00;;;;;;4956311;28;20237;-58
2021/12/01 11:25:37;;;;;;;3.25;1.40;;;11.90;60.90;;;;;;4956165;28;20180;-57
2021/12/01 11:28:08;;;;;;;5.75;1.60;;;12.00;61.50;;;;;;4943024;28;20579;-59
2021/12/01 11:30:37;;;;;;;9.65;2.00;;;12.10;61.20;;;;;;4954827;28;20266;-60
2021/12/01 11:33:03;;;;;;;6.32;2.17;;;12.10;61.10;;;;;;4956061;28;20174;-58
2021/12/01 11:35:30;;;;;;;4.32;2.75;;;12.00;61.30;;;;;;4955974;28;20195;-59
2021/12/01 11:37:57;;;;;;;4.30;2.70;;;12.00;61.10;;;;;;4955742;28;20204;-59
2021/12/01 11:40:26;;;;;;;11.05;3.03;;;12.00;61.70;;;;;;4955325;28;20626;-60
2021/12/01 11:42:52;;;;;;;7.95;2.15;;;12.10;62.00;;;;;;4953842;29;20619;-61
2021/12/01 11:45:17;;;;;;;4.15;2.03;;;12.10;62.20;;;;;;4942706;28;20187;-62
2021/12/01 11:47:47;;;;;;;3.50;1.98;;;12.20;62.20;;;;;;4938241;28;20193;-61
2021/12/01 11:50:26;;;;;;;4.53;2.13;;;12.20;62.30;;;;;;4937776;28;20185;-59
2021/12/01 11:53:10;;;;;;;7.40;2.80;;;12.30;62.50;;;;;;4947682;28;20174;-62
2021/12/01 11:55:58;;;;;;;7.55;3.03;;;12.10;64.60;;;;;;4947557;28;20690;-71
2021/12/01 11:58:48;;;;;;;8.50;3.05;;;12.10;65.40;;;;;;4946894;28;20201;-61
2021/12/01 12:01:20;;;;;;;7.63;3.03;;;12.00;66.10;;;;;;4935072;28;20224;-61
2021/12/01 12:04:01;;;;;;;7.95;3.15;;;12.00;66.50;;;;;;4935509;28;20185;-60
2021/12/01 12:06:35;;;;;;;8.95;3.42;;;12.00;66.20;;;;;;4939175;28;20236;-60
2021/12/01 12:09:07;;;;;;;7.22;3.78;;;12.00;66.40;;;;;;4954565;28;20204;-58
2021/12/01 12:11:52;;;;;;;11.40;4.47;;;12.10;66.30;;;;;;4940284;28;20199;-64
2021/12/01 12:14:22;;;;;;;11.77;4.10;;;12.20;66.60;;;;;;4953348;28;20193;-59
2021/12/01 12:17:07;;;;;;;9.95;4.22;;;12.20;66.30;;;;;;4953084;28;20212;-62
2021/12/01 12:19:55;;;;;;;9.95;3.85;;;12.20;66.70;;;;;;4940773;28;20264;-61
2021/12/01 12:22:34;;;;;;;10.98;4.80;;;12.30;66.40;;;;;;4935310;28;20297;-62
2021/12/01 12:25:00;;;;;;;10.18;4.13;;;12.30;66.30;;;;;;4937400;28;20488;-61
2021/12/01 12:27:42;;;;;;;8.63;4.85;;;12.20;66.60;;;;;;4954284;28;20225;-62
2021/12/01 12:30:37;;;;;;;9.57;4.57;;;12.20;66.70;;;;;;4953886;28;20188;-65
2021/12/01 12:33:24;;;;;;;15.75;4.55;;;12.10;66.60;;;;;;4949183;28;20185;-65
2021/12/01 12:35:52;;;;;;;9.63;4.20;;;12.10;66.90;;;;;;4942051;28;20187;-63
2021/12/01 12:38:18;;;;;;;8.65;4.07;;;12.10;67.60;;;;;;4953483;28;20197;-61
2021/12/01 12:40:45;;;;;;;10.48;3.80;;;12.00;68.10;;;;;;4951799;28;20224;-62
2021/12/01 12:43:25;;;;;;;10.35;3.70;;;12.00;67.90;;;;;;4951964;28;20192;-62
2021/12/01 12:46:07;;;;;;;8.15;4.03;;;12.00;67.80;;;;;;4940472;28;20176;-62
2021/12/01 12:48:41;;;;;;;12.23;3.90;;;11.90;67.40;;;;;;4951284;28;20211;-61
2021/12/01 12:51:26;;;;;;;6.85;3.53;;;11.90;66.90;;;;;;4952216;28;20180;-63
2021/12/01 12:54:15;;;;;;;8.50;3.42;;;11.90;67.70;;;;;;4937276;28;20191;-62
2021/12/01 12:56:50;;;;;;;7.53;3.47;;;11.90;68.00;;;;;;4944146;28;20213;-59
2021/12/01 12:59:19;;;;;;;11.38;3.58;;;11.90;68.60;;;;;;4936514;28;20196;-66
2021/12/01 13:01:51;;;;;;;23.75;4.30;;;11.90;68.20;;;;;;4934614;28;20240;-63
2021/12/01 13:07:35;;;;;;;26.67;4.47;;;11.90;67.10;;;;;;4946703;28;20185;-59
2021/12/01 13:10:50;;;;;;;41.83;5.90;;;11.90;68.30;;;;;;4933476;28;20563;-58